sensor_id;sensor_type;location;lat;lon;timestamp;P1;durP1;ratioP1;P2;durP2;ratioP2
47429;SDS011;33181;49.246;7.372;2023-06-26T00:02:25;8.30;;;7.23;;
47429;SDS011;33181;49.246;7.372;2023-06-26T00:04:50;10.63;;;7.43;;
47429;SDS011;33181;49.246;7.372;2023-06-26T00:07:18;8.00;;;6.73;;
47429;SDS011;33181;49.246;7.372;2023-06-26T00:09:47;10.23;;;7.33;;
47429;SDS011;33181;49.246;7.372;2023-06-26T00:12:12;9.50;;;6.93;;
47429;SDS011;33181;49.246;7.372;2023-06-26T00:14:38;8.43;;;7.07;;
47429;SDS011;33181;49.246;7.372;2023-06-26T00:17:04;8.50;;;7.10;;
47429;SDS011;33181;49.246;7.372;2023-06-26T00:19:30;7.90;;;6.57;;
47429;SDS011;33181;49.246;7.372;2023-06-26T00:21:55;9.63;;;7.03;;
47429;SDS011;33181;49.246;7.372;2023-06-26T00:24:21;9.30;;;6.60;;
47429;SDS011;33181;49.246;7.372;2023-06-26T00:26:47;8.50;;;6.67;;
47429;SDS011;33181;49.246;7.372;2023-06-26T00:29:13;8.83;;;7.40;;
47429;SDS011;33181;49.246;7.372;2023-06-26T00:31:39;10.10;;;7.23;;
47429;SDS011;33181;49.246;7.372;2023-06-26T00:34:05;10.40;;;7.90;;
47429;SDS011;33181;49.246;7.372;2023-06-26T00:36:31;8.47;;;7.00;;
47429;SDS011;33181;49.246;7.372;2023-06-26T00:38:57;8.30;;;7.07;;
47429;SDS011;33181;49.246;7.372;2023-06-26T00:41:24;9.00;;;6.93;;
47429;SDS011;33181;49.246;7.372;2023-06-26T00:43:50;8.40;;;7.10;;
47429;SDS011;33181;49.246;7.372;2023-06-26T00:46:16;9.77;;;7.67;;
47429;SDS011;33181;49.246;7.372;2023-06-26T00:48:46;8.27;;;6.93;;
47429;SDS011;33181;49.246;7.372;2023-06-26T00:51:13;9.10;;;7.43;;
47429;SDS011;33181;49.246;7.372;2023-06-26T00:53:40;8.57;;;7.17;;
47429;SDS011;33181;49.246;7.372;2023-06-26T00:56:08;8.50;;;7.23;;
47429;SDS011;33181;49.246;7.372;2023-06-26T00:58:34;9.80;;;7.90;;
47429;SDS011;33181;49.246;7.372;2023-06-26T01:01:00;8.57;;;7.13;;
47429;SDS011;33181;49.246;7.372;2023-06-26T01:03:26;8.30;;;7.20;;
47429;SDS011;33181;49.246;7.372;2023-06-26T01:05:52;7.93;;;7.00;;
47429;SDS011;33181;49.246;7.372;2023-06-26T01:08:19;9.83;;;8.07;;
47429;SDS011;33181;49.246;7.372;2023-06-26T01:10:45;9.87;;;7.80;;
47429;SDS011;33181;49.246;7.372;2023-06-26T01:13:12;9.50;;;7.63;;
47429;SDS011;33181;49.246;7.372;2023-06-26T01:15:40;10.50;;;8.10;;
47429;SDS011;33181;49.246;7.372;2023-06-26T01:18:06;9.20;;;7.27;;
47429;SDS011;33181;49.246;7.372;2023-06-26T01:20:32;9.20;;;7.43;;
47429;SDS011;33181;49.246;7.372;2023-06-26T01:23:07;9.03;;;7.10;;
47429;SDS011;33181;49.246;7.372;2023-06-26T01:28:41;8.30;;;7.10;;
47429;SDS011;33181;49.246;7.372;2023-06-26T01:31:08;8.77;;;7.27;;
47429;SDS011;33181;49.246;7.372;2023-06-26T01:33:35;9.97;;;7.17;;
47429;SDS011;33181;49.246;7.372;2023-06-26T01:36:02;8.13;;;6.90;;
47429;SDS011;33181;49.246;7.372;2023-06-26T01:38:28;8.67;;;7.00;;
47429;SDS011;33181;49.246;7.372;2023-06-26T01:40:54;9.47;;;7.40;;
47429;SDS011;33181;49.246;7.372;2023-06-26T01:49:29;8.43;;;6.80;;
47429;SDS011;33181;49.246;7.372;2023-06-26T01:52:25;9.40;;;7.20;;
47429;SDS011;33181;49.246;7.372;2023-06-26T01:57:47;8.00;;;7.00;;
47429;SDS011;33181;49.246;7.372;2023-06-26T02:00:16;8.00;;;6.90;;
47429;SDS011;33181;49.246;7.372;2023-06-26T02:02:44;10.27;;;7.50;;
47429;SDS011;33181;49.246;7.372;2023-06-26T02:05:11;9.23;;;7.47;;
47429;SDS011;33181;49.246;7.372;2023-06-26T02:07:37;8.83;;;7.40;;
47429;SDS011;33181;49.246;7.372;2023-06-26T02:10:03;8.70;;;7.17;;
47429;SDS011;33181;49.246;7.372;2023-06-26T02:12:30;9.67;;;6.70;;
47429;SDS011;33181;49.246;7.372;2023-06-26T02:14:56;9.27;;;7.30;;
47429;SDS011;33181;49.246;7.372;2023-06-26T02:17:22;8.40;;;6.97;;
47429;SDS011;33181;49.246;7.372;2023-06-26T02:19:47;8.47;;;7.33;;
47429;SDS011;33181;49.246;7.372;2023-06-26T02:22:14;10.23;;;7.57;;
47429;SDS011;33181;49.246;7.372;2023-06-26T02:24:40;8.20;;;7.00;;
47429;SDS011;33181;49.246;7.372;2023-06-26T02:27:06;8.73;;;7.43;;
47429;SDS011;33181;49.246;7.372;2023-06-26T02:29:32;10.77;;;7.60;;
47429;SDS011;33181;49.246;7.372;2023-06-26T02:31:58;9.87;;;7.83;;
47429;SDS011;33181;49.246;7.372;2023-06-26T02:34:24;8.77;;;7.60;;
47429;SDS011;33181;49.246;7.372;2023-06-26T02:36:50;8.80;;;7.63;;
47429;SDS011;33181;49.246;7.372;2023-06-26T02:39:15;10.20;;;8.37;;
47429;SDS011;33181;49.246;7.372;2023-06-26T02:41:41;9.43;;;7.07;;
47429;SDS011;33181;49.246;7.372;2023-06-26T02:44:08;8.33;;;7.13;;
47429;SDS011;33181;49.246;7.372;2023-06-26T02:46:36;9.20;;;7.03;;
47429;SDS011;33181;49.246;7.372;2023-06-26T02:49:02;9.80;;;8.10;;
47429;SDS011;33181;49.246;7.372;2023-06-26T02:51:28;9.70;;;7.83;;
47429;SDS011;33181;49.246;7.372;2023-06-26T02:53:53;8.53;;;7.43;;
47429;SDS011;33181;49.246;7.372;2023-06-26T02:56:19;9.90;;;7.93;;
47429;SDS011;33181;49.246;7.372;2023-06-26T02:58:45;8.50;;;7.60;;
47429;SDS011;33181;49.246;7.372;2023-06-26T03:01:10;9.30;;;8.10;;
47429;SDS011;33181;49.246;7.372;2023-06-26T03:03:36;9.00;;;7.50;;
47429;SDS011;33181;49.246;7.372;2023-06-26T03:06:06;10.87;;;7.20;;
47429;SDS011;33181;49.246;7.372;2023-06-26T03:08:32;9.40;;;7.50;;
47429;SDS011;33181;49.246;7.372;2023-06-26T03:11:01;9.63;;;7.57;;
47429;SDS011;33181;49.246;7.372;2023-06-26T03:13:27;10.10;;;7.90;;
47429;SDS011;33181;49.246;7.372;2023-06-26T03:15:53;8.93;;;7.80;;
47429;SDS011;33181;49.246;7.372;2023-06-26T03:18:18;11.27;;;8.53;;
47429;SDS011;33181;49.246;7.372;2023-06-26T03:20:44;8.60;;;7.20;;
47429;SDS011;33181;49.246;7.372;2023-06-26T03:23:10;9.40;;;7.33;;
47429;SDS011;33181;49.246;7.372;2023-06-26T03:25:36;10.20;;;8.00;;
47429;SDS011;33181;49.246;7.372;2023-06-26T03:28:02;10.83;;;8.00;;
47429;SDS011;33181;49.246;7.372;2023-06-26T03:30:28;9.63;;;8.00;;
47429;SDS011;33181;49.246;7.372;2023-06-26T03:32:53;10.20;;;7.60;;
47429;SDS011;33181;49.246;7.372;2023-06-26T03:35:19;10.67;;;8.50;;
47429;SDS011;33181;49.246;7.372;2023-06-26T03:37:45;11.00;;;8.03;;
47429;SDS011;33181;49.246;7.372;2023-06-26T03:40:11;9.63;;;7.17;;
47429;SDS011;33181;49.246;7.372;2023-06-26T03:42:37;9.30;;;7.67;;
47429;SDS011;33181;49.246;7.372;2023-06-26T03:45:03;10.97;;;8.17;;
47429;SDS011;33181;49.246;7.372;2023-06-26T03:47:32;10.70;;;8.07;;
47429;SDS011;33181;49.246;7.372;2023-06-26T03:49:58;10.20;;;7.60;;
47429;SDS011;33181;49.246;7.372;2023-06-26T03:52:24;9.77;;;8.27;;
47429;SDS011;33181;49.246;7.372;2023-06-26T03:54:49;8.80;;;7.23;;
47429;SDS011;33181;49.246;7.372;2023-06-26T03:57:15;10.67;;;8.33;;
47429;SDS011;33181;49.246;7.372;2023-06-26T03:59:41;9.63;;;8.03;;
47429;SDS011;33181;49.246;7.372;2023-06-26T04:02:06;11.80;;;7.73;;
47429;SDS011;33181;49.246;7.372;2023-06-26T04:04:32;10.10;;;8.23;;
47429;SDS011;33181;49.246;7.372;2023-06-26T04:06:58;11.50;;;8.07;;
47429;SDS011;33181;49.246;7.372;2023-06-26T04:09:24;10.37;;;7.80;;
47429;SDS011;33181;49.246;7.372;2023-06-26T04:11:51;12.17;;;8.33;;
47429;SDS011;33181;49.246;7.372;2023-06-26T04:14:17;11.93;;;7.37;;
47429;SDS011;33181;49.246;7.372;2023-06-26T04:16:43;9.83;;;7.57;;
47429;SDS011;33181;49.246;7.372;2023-06-26T04:19:08;9.03;;;7.80;;
47429;SDS011;33181;49.246;7.372;2023-06-26T04:21:35;11.97;;;7.80;;
47429;SDS011;33181;49.246;7.372;2023-06-26T04:24:01;8.73;;;7.40;;
47429;SDS011;33181;49.246;7.372;2023-06-26T04:26:26;10.43;;;8.37;;
47429;SDS011;33181;49.246;7.372;2023-06-26T04:28:53;9.77;;;8.00;;
47429;SDS011;33181;49.246;7.372;2023-06-26T04:31:19;10.30;;;7.70;;
47429;SDS011;33181;49.246;7.372;2023-06-26T04:33:45;10.40;;;7.80;;
47429;SDS011;33181;49.246;7.372;2023-06-26T04:36:15;8.23;;;7.07;;
47429;SDS011;33181;49.246;7.372;2023-06-26T04:38:42;8.23;;;7.10;;
47429;SDS011;33181;49.246;7.372;2023-06-26T04:41:08;9.17;;;7.80;;
47429;SDS011;33181;49.246;7.372;2023-06-26T04:43:34;8.73;;;7.20;;
47429;SDS011;33181;49.246;7.372;2023-06-26T04:46:01;10.50;;;7.60;;
47429;SDS011;33181;49.246;7.372;2023-06-26T04:48:28;32.07;;;13.00;;
47429;SDS011;33181;49.246;7.372;2023-06-26T04:50:56;12.17;;;8.60;;
47429;SDS011;33181;49.246;7.372;2023-06-26T04:53:22;12.30;;;8.97;;
47429;SDS011;33181;49.246;7.372;2023-06-26T04:55:52;10.50;;;8.10;;
47429;SDS011;33181;49.246;7.372;2023-06-26T04:58:18;13.70;;;8.00;;
47429;SDS011;33181;49.246;7.372;2023-06-26T05:00:44;9.50;;;7.60;;
47429;SDS011;33181;49.246;7.372;2023-06-26T05:03:11;8.70;;;7.03;;
47429;SDS011;33181;49.246;7.372;2023-06-26T05:05:38;11.23;;;7.80;;
47429;SDS011;33181;49.246;7.372;2023-06-26T05:08:17;9.90;;;7.97;;
47429;SDS011;33181;49.246;7.372;2023-06-26T05:10:43;8.93;;;7.50;;
47429;SDS011;33181;49.246;7.372;2023-06-26T05:13:10;9.67;;;7.43;;
47429;SDS011;33181;49.246;7.372;2023-06-26T05:15:39;9.77;;;7.40;;
47429;SDS011;33181;49.246;7.372;2023-06-26T05:18:07;9.10;;;7.50;;
47429;SDS011;33181;49.246;7.372;2023-06-26T05:20:33;10.40;;;7.80;;
47429;SDS011;33181;49.246;7.372;2023-06-26T05:23:04;10.90;;;8.20;;
47429;SDS011;33181;49.246;7.372;2023-06-26T05:25:30;10.10;;;8.10;;
47429;SDS011;33181;49.246;7.372;2023-06-26T05:27:59;10.07;;;7.90;;
47429;SDS011;33181;49.246;7.372;2023-06-26T05:30:25;11.30;;;8.10;;
47429;SDS011;33181;49.246;7.372;2023-06-26T05:32:53;10.57;;;7.97;;
47429;SDS011;33181;49.246;7.372;2023-06-26T05:35:22;9.63;;;8.30;;
47429;SDS011;33181;49.246;7.372;2023-06-26T05:37:49;12.13;;;8.20;;
47429;SDS011;33181;49.246;7.372;2023-06-26T05:40:18;9.07;;;8.03;;
47429;SDS011;33181;49.246;7.372;2023-06-26T05:42:44;14.83;;;8.70;;
47429;SDS011;33181;49.246;7.372;2023-06-26T05:45:11;10.27;;;8.33;;
47429;SDS011;33181;49.246;7.372;2023-06-26T05:47:36;13.63;;;8.40;;
47429;SDS011;33181;49.246;7.372;2023-06-26T05:50:03;9.70;;;8.40;;
47429;SDS011;33181;49.246;7.372;2023-06-26T05:52:29;10.53;;;7.73;;
47429;SDS011;33181;49.246;7.372;2023-06-26T05:54:56;9.40;;;7.90;;
47429;SDS011;33181;49.246;7.372;2023-06-26T05:57:26;9.70;;;7.97;;
47429;SDS011;33181;49.246;7.372;2023-06-26T05:59:54;11.83;;;8.80;;
47429;SDS011;33181;49.246;7.372;2023-06-26T06:02:20;12.03;;;8.00;;
47429;SDS011;33181;49.246;7.372;2023-06-26T06:04:46;9.50;;;7.80;;
47429;SDS011;33181;49.246;7.372;2023-06-26T06:07:12;9.60;;;8.00;;
47429;SDS011;33181;49.246;7.372;2023-06-26T06:09:38;9.90;;;7.70;;
47429;SDS011;33181;49.246;7.372;2023-06-26T06:12:05;11.70;;;8.20;;
47429;SDS011;33181;49.246;7.372;2023-06-26T06:14:33;10.17;;;8.40;;
47429;SDS011;33181;49.246;7.372;2023-06-26T06:16:59;9.50;;;7.87;;
47429;SDS011;33181;49.246;7.372;2023-06-26T06:19:26;8.90;;;7.90;;
47429;SDS011;33181;49.246;7.372;2023-06-26T06:21:52;9.00;;;8.10;;
47429;SDS011;33181;49.246;7.372;2023-06-26T06:24:18;11.33;;;8.27;;
47429;SDS011;33181;49.246;7.372;2023-06-26T06:26:45;9.70;;;7.60;;
47429;SDS011;33181;49.246;7.372;2023-06-26T06:29:11;8.80;;;7.77;;
47429;SDS011;33181;49.246;7.372;2023-06-26T06:31:36;8.87;;;7.67;;
47429;SDS011;33181;49.246;7.372;2023-06-26T06:34:04;19.07;;;8.70;;
47429;SDS011;33181;49.246;7.372;2023-06-26T06:36:30;8.93;;;7.07;;
47429;SDS011;33181;49.246;7.372;2023-06-26T06:38:56;12.80;;;7.80;;
47429;SDS011;33181;49.246;7.372;2023-06-26T06:41:21;9.63;;;8.40;;
47429;SDS011;33181;49.246;7.372;2023-06-26T06:43:52;13.93;;;8.50;;
47429;SDS011;33181;49.246;7.372;2023-06-26T06:46:18;9.80;;;8.00;;
47429;SDS011;33181;49.246;7.372;2023-06-26T06:48:43;9.43;;;8.00;;
47429;SDS011;33181;49.246;7.372;2023-06-26T06:51:11;11.83;;;8.67;;
47429;SDS011;33181;49.246;7.372;2023-06-26T06:53:37;11.33;;;8.40;;
47429;SDS011;33181;49.246;7.372;2023-06-26T06:56:03;10.57;;;8.77;;
47429;SDS011;33181;49.246;7.372;2023-06-26T06:58:29;10.90;;;8.43;;
47429;SDS011;33181;49.246;7.372;2023-06-26T07:00:58;10.40;;;8.00;;
47429;SDS011;33181;49.246;7.372;2023-06-26T07:03:24;9.67;;;8.20;;
47429;SDS011;33181;49.246;7.372;2023-06-26T07:05:50;9.77;;;8.73;;
47429;SDS011;33181;49.246;7.372;2023-06-26T07:08:16;14.17;;;8.90;;
47429;SDS011;33181;49.246;7.372;2023-06-26T07:10:42;10.90;;;8.90;;
47429;SDS011;33181;49.246;7.372;2023-06-26T07:13:08;13.80;;;9.20;;
47429;SDS011;33181;49.246;7.372;2023-06-26T07:15:33;9.97;;;8.97;;
47429;SDS011;33181;49.246;7.372;2023-06-26T07:18:00;11.80;;;8.70;;
47429;SDS011;33181;49.246;7.372;2023-06-26T07:20:25;13.30;;;8.90;;
47429;SDS011;33181;49.246;7.372;2023-06-26T07:22:52;17.70;;;9.23;;
47429;SDS011;33181;49.246;7.372;2023-06-26T07:25:17;13.00;;;9.80;;
47429;SDS011;33181;49.246;7.372;2023-06-26T07:27:43;16.27;;;8.87;;
47429;SDS011;33181;49.246;7.372;2023-06-26T07:30:09;11.13;;;9.30;;
47429;SDS011;33181;49.246;7.372;2023-06-26T07:32:36;11.40;;;8.83;;
47429;SDS011;33181;49.246;7.372;2023-06-26T07:35:02;13.23;;;9.40;;
47429;SDS011;33181;49.246;7.372;2023-06-26T07:37:29;12.10;;;9.60;;
47429;SDS011;33181;49.246;7.372;2023-06-26T07:39:55;14.30;;;9.20;;
47429;SDS011;33181;49.246;7.372;2023-06-26T07:42:22;13.30;;;9.20;;
47429;SDS011;33181;49.246;7.372;2023-06-26T07:44:48;14.80;;;9.13;;
47429;SDS011;33181;49.246;7.372;2023-06-26T07:47:14;10.87;;;8.57;;
47429;SDS011;33181;49.246;7.372;2023-06-26T07:49:40;10.43;;;8.50;;
47429;SDS011;33181;49.246;7.372;2023-06-26T07:52:06;12.33;;;8.90;;
47429;SDS011;33181;49.246;7.372;2023-06-26T07:54:35;10.73;;;8.67;;
47429;SDS011;33181;49.246;7.372;2023-06-26T07:57:01;10.27;;;8.80;;
47429;SDS011;33181;49.246;7.372;2023-06-26T07:59:31;12.13;;;8.80;;
47429;SDS011;33181;49.246;7.372;2023-06-26T08:01:58;13.40;;;8.67;;
47429;SDS011;33181;49.246;7.372;2023-06-26T08:04:25;11.87;;;9.03;;
47429;SDS011;33181;49.246;7.372;2023-06-26T08:06:53;12.37;;;8.77;;
47429;SDS011;33181;49.246;7.372;2023-06-26T08:09:22;13.20;;;8.47;;
47429;SDS011;33181;49.246;7.372;2023-06-26T08:11:50;9.13;;;7.87;;
47429;SDS011;33181;49.246;7.372;2023-06-26T08:14:16;19.80;;;8.20;;
47429;SDS011;33181;49.246;7.372;2023-06-26T08:16:43;14.43;;;7.60;;
47429;SDS011;33181;49.246;7.372;2023-06-26T08:19:09;9.00;;;7.57;;
47429;SDS011;33181;49.246;7.372;2023-06-26T08:21:37;8.83;;;7.93;;
47429;SDS011;33181;49.246;7.372;2023-06-26T08:24:03;9.20;;;7.30;;
47429;SDS011;33181;49.246;7.372;2023-06-26T08:26:29;8.83;;;6.90;;
47429;SDS011;33181;49.246;7.372;2023-06-26T08:28:55;8.30;;;6.83;;
47429;SDS011;33181;49.246;7.372;2023-06-26T08:31:20;7.50;;;6.70;;
47429;SDS011;33181;49.246;7.372;2023-06-26T08:33:47;8.20;;;6.50;;
47429;SDS011;33181;49.246;7.372;2023-06-26T08:36:13;9.70;;;6.60;;
47429;SDS011;33181;49.246;7.372;2023-06-26T08:38:39;10.90;;;5.97;;
47429;SDS011;33181;49.246;7.372;2023-06-26T08:41:05;8.40;;;5.73;;
47429;SDS011;33181;49.246;7.372;2023-06-26T08:43:32;6.40;;;5.30;;
47429;SDS011;33181;49.246;7.372;2023-06-26T08:45:59;8.63;;;5.87;;
47429;SDS011;33181;49.246;7.372;2023-06-26T08:48:25;12.80;;;5.70;;
47429;SDS011;33181;49.246;7.372;2023-06-26T08:50:53;12.30;;;5.67;;
47429;SDS011;33181;49.246;7.372;2023-06-26T08:54:02;8.37;;;5.30;;
47429;SDS011;33181;49.246;7.372;2023-06-26T08:56:32;6.70;;;5.10;;
47429;SDS011;33181;49.246;7.372;2023-06-26T08:59:03;10.37;;;5.57;;
47429;SDS011;33181;49.246;7.372;2023-06-26T09:01:31;8.70;;;5.43;;
47429;SDS011;33181;49.246;7.372;2023-06-26T09:03:57;9.77;;;4.70;;
47429;SDS011;33181;49.246;7.372;2023-06-26T09:06:23;8.53;;;5.30;;
47429;SDS011;33181;49.246;7.372;2023-06-26T09:08:49;6.53;;;5.30;;
47429;SDS011;33181;49.246;7.372;2023-06-26T09:11:18;6.83;;;5.50;;
47429;SDS011;33181;49.246;7.372;2023-06-26T09:13:44;7.20;;;5.30;;
47429;SDS011;33181;49.246;7.372;2023-06-26T09:16:12;6.47;;;5.23;;
47429;SDS011;33181;49.246;7.372;2023-06-26T09:18:39;7.50;;;5.53;;
47429;SDS011;33181;49.246;7.372;2023-06-26T09:21:07;7.47;;;5.13;;
47429;SDS011;33181;49.246;7.372;2023-06-26T09:23:34;6.63;;;4.90;;
47429;SDS011;33181;49.246;7.372;2023-06-26T09:26:04;8.00;;;4.80;;
47429;SDS011;33181;49.246;7.372;2023-06-26T09:28:31;7.93;;;5.10;;
47429;SDS011;33181;49.246;7.372;2023-06-26T09:31:01;7.00;;;5.10;;
47429;SDS011;33181;49.246;7.372;2023-06-26T09:33:33;5.73;;;4.50;;
47429;SDS011;33181;49.246;7.372;2023-06-26T09:36:06;7.10;;;5.10;;
47429;SDS011;33181;49.246;7.372;2023-06-26T09:38:44;11.03;;;4.30;;
47429;SDS011;33181;49.246;7.372;2023-06-26T09:41:09;6.90;;;4.57;;
47429;SDS011;33181;49.246;7.372;2023-06-26T09:43:39;9.57;;;4.70;;
47429;SDS011;33181;49.246;7.372;2023-06-26T09:46:24;8.67;;;4.30;;
47429;SDS011;33181;49.246;7.372;2023-06-26T09:48:57;5.67;;;4.23;;
47429;SDS011;33181;49.246;7.372;2023-06-26T09:51:29;8.93;;;4.63;;
47429;SDS011;33181;49.246;7.372;2023-06-26T09:54:03;8.60;;;4.50;;
47429;SDS011;33181;49.246;7.372;2023-06-26T09:56:30;8.80;;;3.97;;
47429;SDS011;33181;49.246;7.372;2023-06-26T09:58:58;6.27;;;4.23;;
47429;SDS011;33181;49.246;7.372;2023-06-26T10:01:28;5.80;;;4.63;;
47429;SDS011;33181;49.246;7.372;2023-06-26T10:03:54;7.80;;;4.70;;
47429;SDS011;33181;49.246;7.372;2023-06-26T10:06:27;5.20;;;4.23;;
47429;SDS011;33181;49.246;7.372;2023-06-26T10:09:02;6.43;;;4.30;;
47429;SDS011;33181;49.246;7.372;2023-06-26T10:11:33;6.00;;;4.87;;
47429;SDS011;33181;49.246;7.372;2023-06-26T10:14:05;7.17;;;5.20;;
47429;SDS011;33181;49.246;7.372;2023-06-26T10:16:34;7.30;;;5.00;;
47429;SDS011;33181;49.246;7.372;2023-06-26T10:19:03;9.13;;;5.17;;
47429;SDS011;33181;49.246;7.372;2023-06-26T10:21:33;8.67;;;4.60;;
47429;SDS011;33181;49.246;7.372;2023-06-26T10:24:03;8.60;;;4.70;;
47429;SDS011;33181;49.246;7.372;2023-06-26T10:26:31;5.30;;;4.60;;
47429;SDS011;33181;49.246;7.372;2023-06-26T10:29:03;8.80;;;4.70;;
47429;SDS011;33181;49.246;7.372;2023-06-26T10:31:30;7.90;;;4.53;;
47429;SDS011;33181;49.246;7.372;2023-06-26T10:33:58;6.50;;;4.60;;
47429;SDS011;33181;49.246;7.372;2023-06-26T10:36:28;8.87;;;4.63;;
47429;SDS011;33181;49.246;7.372;2023-06-26T10:38:57;6.80;;;4.93;;
47429;SDS011;33181;49.246;7.372;2023-06-26T10:41:30;9.03;;;4.87;;
47429;SDS011;33181;49.246;7.372;2023-06-26T10:46:53;6.10;;;4.37;;
47429;SDS011;33181;49.246;7.372;2023-06-26T10:49:25;6.37;;;5.00;;
47429;SDS011;33181;49.246;7.372;2023-06-26T10:51:54;6.47;;;5.10;;
47429;SDS011;33181;49.246;7.372;2023-06-26T10:54:22;8.20;;;4.83;;
47429;SDS011;33181;49.246;7.372;2023-06-26T10:56:49;9.10;;;5.47;;
47429;SDS011;33181;49.246;7.372;2023-06-26T10:59:22;9.80;;;6.37;;
47429;SDS011;33181;49.246;7.372;2023-06-26T11:01:59;10.57;;;6.40;;
47429;SDS011;33181;49.246;7.372;2023-06-26T11:04:40;8.67;;;6.33;;
47429;SDS011;33181;49.246;7.372;2023-06-26T11:07:14;10.40;;;6.13;;
47429;SDS011;33181;49.246;7.372;2023-06-26T11:09:58;15.37;;;8.10;;
47429;SDS011;33181;49.246;7.372;2023-06-26T11:15:05;9.67;;;6.60;;
47429;SDS011;33181;49.246;7.372;2023-06-26T11:17:44;11.83;;;5.90;;
47429;SDS011;33181;49.246;7.372;2023-06-26T11:20:11;9.30;;;5.87;;
47429;SDS011;33181;49.246;7.372;2023-06-26T11:22:39;8.70;;;5.90;;
47429;SDS011;33181;49.246;7.372;2023-06-26T11:25:07;8.13;;;5.73;;
47429;SDS011;33181;49.246;7.372;2023-06-26T11:30:03;8.53;;;5.57;;
47429;SDS011;33181;49.246;7.372;2023-06-26T11:32:34;6.93;;;5.50;;
47429;SDS011;33181;49.246;7.372;2023-06-26T11:35:04;8.20;;;5.33;;
47429;SDS011;33181;49.246;7.372;2023-06-26T11:37:34;6.60;;;5.00;;
47429;SDS011;33181;49.246;7.372;2023-06-26T11:39:59;9.13;;;4.87;;
47429;SDS011;33181;49.246;7.372;2023-06-26T11:42:41;9.50;;;4.50;;
47429;SDS011;33181;49.246;7.372;2023-06-26T11:45:08;8.83;;;4.47;;
47429;SDS011;33181;49.246;7.372;2023-06-26T11:47:35;4.70;;;3.43;;
47429;SDS011;33181;49.246;7.372;2023-06-26T11:50:04;7.77;;;3.77;;
47429;SDS011;33181;49.246;7.372;2023-06-26T11:52:30;6.83;;;3.53;;
47429;SDS011;33181;49.246;7.372;2023-06-26T11:54:58;4.93;;;3.30;;
47429;SDS011;33181;49.246;7.372;2023-06-26T11:57:24;4.63;;;3.37;;
47429;SDS011;33181;49.246;7.372;2023-06-26T11:59:55;12.13;;;3.10;;
47429;SDS011;33181;49.246;7.372;2023-06-26T12:02:21;7.27;;;3.30;;
47429;SDS011;33181;49.246;7.372;2023-06-26T12:04:49;5.73;;;3.10;;
47429;SDS011;33181;49.246;7.372;2023-06-26T12:07:15;5.50;;;3.10;;
47429;SDS011;33181;49.246;7.372;2023-06-26T12:09:43;3.50;;;2.70;;
47429;SDS011;33181;49.246;7.372;2023-06-26T12:12:11;11.13;;;3.03;;
47429;SDS011;33181;49.246;7.372;2023-06-26T12:14:39;8.73;;;2.97;;
47429;SDS011;33181;49.246;7.372;2023-06-26T12:17:10;8.10;;;2.80;;
47429;SDS011;33181;49.246;7.372;2023-06-26T12:19:38;5.83;;;3.00;;
47429;SDS011;33181;49.246;7.372;2023-06-26T12:22:08;5.50;;;2.90;;
47429;SDS011;33181;49.246;7.372;2023-06-26T12:24:36;5.20;;;3.00;;
47429;SDS011;33181;49.246;7.372;2023-06-26T12:27:07;6.63;;;2.90;;
47429;SDS011;33181;49.246;7.372;2023-06-26T12:29:39;6.40;;;3.00;;
47429;SDS011;33181;49.246;7.372;2023-06-26T12:32:12;3.80;;;2.70;;
47429;SDS011;33181;49.246;7.372;2023-06-26T12:34:39;6.20;;;3.17;;
47429;SDS011;33181;49.246;7.372;2023-06-26T12:37:06;4.23;;;2.53;;
47429;SDS011;33181;49.246;7.372;2023-06-26T12:42:15;6.03;;;3.00;;
47429;SDS011;33181;49.246;7.372;2023-06-26T12:44:48;5.87;;;2.60;;
47429;SDS011;33181;49.246;7.372;2023-06-26T12:47:16;8.37;;;2.90;;
47429;SDS011;33181;49.246;7.372;2023-06-26T12:49:49;6.97;;;2.63;;
47429;SDS011;33181;49.246;7.372;2023-06-26T12:52:19;5.13;;;2.90;;
47429;SDS011;33181;49.246;7.372;2023-06-26T12:54:46;5.07;;;2.80;;
47429;SDS011;33181;49.246;7.372;2023-06-26T12:57:18;4.10;;;2.73;;
47429;SDS011;33181;49.246;7.372;2023-06-26T12:59:44;6.30;;;2.80;;
47429;SDS011;33181;49.246;7.372;2023-06-26T13:02:10;5.00;;;2.80;;
47429;SDS011;33181;49.246;7.372;2023-06-26T13:04:36;5.33;;;2.60;;
47429;SDS011;33181;49.246;7.372;2023-06-26T13:07:05;3.67;;;2.60;;
47429;SDS011;33181;49.246;7.372;2023-06-26T13:09:34;8.13;;;2.60;;
47429;SDS011;33181;49.246;7.372;2023-06-26T13:12:02;8.13;;;2.80;;
47429;SDS011;33181;49.246;7.372;2023-06-26T13:14:31;7.83;;;2.77;;
47429;SDS011;33181;49.246;7.372;2023-06-26T13:16:57;5.83;;;3.00;;
47429;SDS011;33181;49.246;7.372;2023-06-26T13:19:24;8.10;;;3.00;;
47429;SDS011;33181;49.246;7.372;2023-06-26T13:21:50;5.40;;;2.37;;
47429;SDS011;33181;49.246;7.372;2023-06-26T13:24:16;5.70;;;2.23;;
47429;SDS011;33181;49.246;7.372;2023-06-26T13:26:42;3.90;;;2.47;;
47429;SDS011;33181;49.246;7.372;2023-06-26T13:29:08;6.30;;;2.73;;
47429;SDS011;33181;49.246;7.372;2023-06-26T13:31:34;5.23;;;2.47;;
47429;SDS011;33181;49.246;7.372;2023-06-26T13:34:03;9.10;;;2.63;;
47429;SDS011;33181;49.246;7.372;2023-06-26T13:36:30;6.73;;;2.57;;
47429;SDS011;33181;49.246;7.372;2023-06-26T13:38:59;10.43;;;2.73;;
47429;SDS011;33181;49.246;7.372;2023-06-26T13:41:25;5.40;;;2.47;;
47429;SDS011;33181;49.246;7.372;2023-06-26T13:43:51;8.43;;;2.53;;
47429;SDS011;33181;49.246;7.372;2023-06-26T13:46:17;8.83;;;2.83;;
47429;SDS011;33181;49.246;7.372;2023-06-26T13:48:43;5.80;;;2.30;;
47429;SDS011;33181;49.246;7.372;2023-06-26T13:51:10;5.10;;;2.20;;
47429;SDS011;33181;49.246;7.372;2023-06-26T13:53:36;4.17;;;2.23;;
47429;SDS011;33181;49.246;7.372;2023-06-26T13:56:02;6.70;;;2.67;;
47429;SDS011;33181;49.246;7.372;2023-06-26T13:58:28;7.20;;;2.40;;
47429;SDS011;33181;49.246;7.372;2023-06-26T14:00:55;8.90;;;3.20;;
47429;SDS011;33181;49.246;7.372;2023-06-26T14:03:20;4.13;;;2.37;;
47429;SDS011;33181;49.246;7.372;2023-06-26T14:05:46;4.40;;;2.40;;
47429;SDS011;33181;49.246;7.372;2023-06-26T14:08:12;5.40;;;2.40;;
47429;SDS011;33181;49.246;7.372;2023-06-26T14:10:38;5.93;;;2.13;;
47429;SDS011;33181;49.246;7.372;2023-06-26T14:13:05;7.17;;;2.37;;
47429;SDS011;33181;49.246;7.372;2023-06-26T14:15:34;5.13;;;2.40;;
47429;SDS011;33181;49.246;7.372;2023-06-26T14:18:00;6.30;;;2.17;;
47429;SDS011;33181;49.246;7.372;2023-06-26T14:20:27;3.90;;;2.20;;
47429;SDS011;33181;49.246;7.372;2023-06-26T14:22:54;6.70;;;2.17;;
47429;SDS011;33181;49.246;7.372;2023-06-26T14:25:19;3.87;;;2.20;;
47429;SDS011;33181;49.246;7.372;2023-06-26T14:27:45;4.73;;;2.20;;
47429;SDS011;33181;49.246;7.372;2023-06-26T14:30:14;3.90;;;2.13;;
47429;SDS011;33181;49.246;7.372;2023-06-26T14:32:41;6.73;;;2.33;;
47429;SDS011;33181;49.246;7.372;2023-06-26T14:35:07;3.60;;;2.30;;
47429;SDS011;33181;49.246;7.372;2023-06-26T14:37:32;8.97;;;2.47;;
47429;SDS011;33181;49.246;7.372;2023-06-26T14:40:01;5.87;;;2.47;;
47429;SDS011;33181;49.246;7.372;2023-06-26T14:42:26;6.60;;;2.53;;
47429;SDS011;33181;49.246;7.372;2023-06-26T14:44:53;4.50;;;2.47;;
47429;SDS011;33181;49.246;7.372;2023-06-26T14:47:18;5.27;;;2.13;;
47429;SDS011;33181;49.246;7.372;2023-06-26T14:49:44;4.70;;;2.30;;
47429;SDS011;33181;49.246;7.372;2023-06-26T14:52:10;4.30;;;2.20;;
47429;SDS011;33181;49.246;7.372;2023-06-26T14:54:36;7.03;;;2.40;;
47429;SDS011;33181;49.246;7.372;2023-06-26T14:57:02;4.00;;;2.10;;
47429;SDS011;33181;49.246;7.372;2023-06-26T14:59:29;5.20;;;2.10;;
47429;SDS011;33181;49.246;7.372;2023-06-26T15:01:55;6.17;;;2.37;;
47429;SDS011;33181;49.246;7.372;2023-06-26T15:04:21;3.77;;;2.40;;
47429;SDS011;33181;49.246;7.372;2023-06-26T15:06:46;7.30;;;2.70;;
47429;SDS011;33181;49.246;7.372;2023-06-26T15:09:12;10.47;;;2.33;;